Terminal Aerodrome Forecast
Issued by NWS

Home | Current Version | Previous Version | Graphics & Text | Print | Product List | Glossary On
Versions: 1 2 3 4 5 6 7 8 9 10 11 12 13 14 15 16 17 18 19 20 21 22 23 24
000
FTUS43 KMPX 201700
TAFAXN
TAF
KAXN 201737Z 2018/2118 19015G21KT P6SM FEW050 SCT200
     FM202300 19011KT P6SM SCT060 OVC150
      TEMPO 2100/2104 3SM -TSRA OVC040CB
     FM210400 19008KT P6SM SCT080 BKN200
      TEMPO 2109/2113 4SM BR
     FM211400 16008KT 6SM HZ SCT060 SCT150=

USA.gov is the U.S. government's official web portal to all federal, state and local government web resources and services.